sensor_id;sensor_type;location;lat;lon;timestamp;P1;durP1;ratioP1;P2;durP2;ratioP2
42124;SDS011;27787;44.594;11.046;2023-04-03T00:01:58;7.97;;;4.68;;
42124;SDS011;27787;44.594;11.046;2023-04-03T00:04:42;7.85;;;4.43;;
42124;SDS011;27787;44.594;11.046;2023-04-03T00:07:26;7.65;;;4.32;;
42124;SDS011;27787;44.594;11.046;2023-04-03T00:10:10;10.25;;;4.50;;
42124;SDS011;27787;44.594;11.046;2023-04-03T00:12:55;7.30;;;4.00;;
42124;SDS011;27787;44.594;11.046;2023-04-03T00:15:40;6.43;;;4.07;;
42124;SDS011;27787;44.594;11.046;2023-04-03T00:18:25;8.18;;;4.30;;
42124;SDS011;27787;44.594;11.046;2023-04-03T00:21:10;9.38;;;4.03;;
42124;SDS011;27787;44.594;11.046;2023-04-03T00:23:56;10.02;;;4.35;;
42124;SDS011;27787;44.594;11.046;2023-04-03T00:26:40;10.50;;;3.85;;
42124;SDS011;27787;44.594;11.046;2023-04-03T00:29:24;9.65;;;4.63;;
42124;SDS011;27787;44.594;11.046;2023-04-03T00:32:08;9.73;;;4.28;;
42124;SDS011;27787;44.594;11.046;2023-04-03T00:34:52;7.53;;;4.28;;
42124;SDS011;27787;44.594;11.046;2023-04-03T00:37:36;11.73;;;4.53;;
42124;SDS011;27787;44.594;11.046;2023-04-03T00:40:21;8.60;;;4.72;;
42124;SDS011;27787;44.594;11.046;2023-04-03T00:43:19;8.25;;;4.78;;
42124;SDS011;27787;44.594;11.046;2023-04-03T00:46:07;6.03;;;3.72;;
42124;SDS011;27787;44.594;11.046;2023-04-03T00:48:52;7.78;;;4.00;;
42124;SDS011;27787;44.594;11.046;2023-04-03T00:51:35;7.65;;;4.25;;
42124;SDS011;27787;44.594;11.046;2023-04-03T00:54:20;9.05;;;4.47;;
42124;SDS011;27787;44.594;11.046;2023-04-03T00:57:05;8.55;;;4.60;;
42124;SDS011;27787;44.594;11.046;2023-04-03T00:59:51;8.27;;;4.75;;
42124;SDS011;27787;44.594;11.046;2023-04-03T01:02:41;7.65;;;3.97;;
42124;SDS011;27787;44.594;11.046;2023-04-03T01:05:27;9.73;;;3.55;;
42124;SDS011;27787;44.594;11.046;2023-04-03T01:08:11;8.15;;;3.30;;
42124;SDS011;27787;44.594;11.046;2023-04-03T01:10:56;7.60;;;3.95;;
42124;SDS011;27787;44.594;11.046;2023-04-03T01:13:40;7.97;;;3.97;;
42124;SDS011;27787;44.594;11.046;2023-04-03T01:16:25;8.30;;;3.20;;
42124;SDS011;27787;44.594;11.046;2023-04-03T01:19:11;7.68;;;3.80;;
42124;SDS011;27787;44.594;11.046;2023-04-03T01:22:23;6.50;;;3.00;;
42124;SDS011;27787;44.594;11.046;2023-04-03T01:25:10;5.72;;;2.92;;
42124;SDS011;27787;44.594;11.046;2023-04-03T01:27:55;7.95;;;3.50;;
42124;SDS011;27787;44.594;11.046;2023-04-03T01:31:22;9.13;;;2.92;;
42124;SDS011;27787;44.594;11.046;2023-04-03T01:34:05;6.55;;;3.95;;
42124;SDS011;27787;44.594;11.046;2023-04-03T01:36:50;6.25;;;3.53;;
42124;SDS011;27787;44.594;11.046;2023-04-03T01:39:36;8.18;;;4.40;;
42124;SDS011;27787;44.594;11.046;2023-04-03T01:42:20;8.63;;;4.43;;
42124;SDS011;27787;44.594;11.046;2023-04-03T01:45:05;6.20;;;3.78;;
42124;SDS011;27787;44.594;11.046;2023-04-03T01:47:49;7.20;;;4.20;;
42124;SDS011;27787;44.594;11.046;2023-04-03T01:50:34;8.70;;;4.03;;
42124;SDS011;27787;44.594;11.046;2023-04-03T01:53:18;7.28;;;3.85;;
42124;SDS011;27787;44.594;11.046;2023-04-03T01:56:03;6.80;;;3.85;;
42124;SDS011;27787;44.594;11.046;2023-04-03T01:58:49;5.90;;;3.63;;
42124;SDS011;27787;44.594;11.046;2023-04-03T02:01:34;8.00;;;4.40;;
42124;SDS011;27787;44.594;11.046;2023-04-03T02:04:18;7.50;;;4.28;;
42124;SDS011;27787;44.594;11.046;2023-04-03T02:07:02;6.47;;;3.88;;
42124;SDS011;27787;44.594;11.046;2023-04-03T02:09:46;6.88;;;4.07;;
42124;SDS011;27787;44.594;11.046;2023-04-03T02:12:30;10.60;;;4.60;;
42124;SDS011;27787;44.594;11.046;2023-04-03T02:15:14;6.80;;;4.07;;
42124;SDS011;27787;44.594;11.046;2023-04-03T02:17:58;5.80;;;3.63;;
42124;SDS011;27787;44.594;11.046;2023-04-03T02:20:44;5.22;;;3.55;;
42124;SDS011;27787;44.594;11.046;2023-04-03T02:23:29;6.75;;;3.58;;
42124;SDS011;27787;44.594;11.046;2023-04-03T02:26:14;7.65;;;3.35;;
42124;SDS011;27787;44.594;11.046;2023-04-03T02:29:03;6.75;;;3.42;;
42124;SDS011;27787;44.594;11.046;2023-04-03T02:31:47;6.05;;;3.88;;
42124;SDS011;27787;44.594;11.046;2023-04-03T02:34:32;5.68;;;3.67;;
42124;SDS011;27787;44.594;11.046;2023-04-03T02:40:04;6.30;;;3.60;;
42124;SDS011;27787;44.594;11.046;2023-04-03T02:42:49;5.57;;;3.40;;
42124;SDS011;27787;44.594;11.046;2023-04-03T02:45:34;6.93;;;3.63;;
42124;SDS011;27787;44.594;11.046;2023-04-03T02:48:18;7.03;;;3.60;;
42124;SDS011;27787;44.594;11.046;2023-04-03T02:51:02;9.00;;;3.42;;
42124;SDS011;27787;44.594;11.046;2023-04-03T02:53:47;4.38;;;2.90;;
42124;SDS011;27787;44.594;11.046;2023-04-03T02:56:35;4.05;;;2.72;;
42124;SDS011;27787;44.594;11.046;2023-04-03T02:59:20;6.68;;;3.05;;
42124;SDS011;27787;44.594;11.046;2023-04-03T03:02:05;6.70;;;2.83;;
42124;SDS011;27787;44.594;11.046;2023-04-03T03:04:49;4.70;;;2.50;;
42124;SDS011;27787;44.594;11.046;2023-04-03T03:07:33;3.90;;;2.40;;
42124;SDS011;27787;44.594;11.046;2023-04-03T03:10:17;3.55;;;2.60;;
42124;SDS011;27787;44.594;11.046;2023-04-03T03:13:03;5.63;;;2.20;;
42124;SDS011;27787;44.594;11.046;2023-04-03T03:15:47;5.60;;;2.75;;
42124;SDS011;27787;44.594;11.046;2023-04-03T03:18:31;3.70;;;2.30;;
42124;SDS011;27787;44.594;11.046;2023-04-03T03:21:16;4.32;;;2.58;;
42124;SDS011;27787;44.594;11.046;2023-04-03T03:24:00;6.43;;;2.88;;
42124;SDS011;27787;44.594;11.046;2023-04-03T03:26:45;8.35;;;4.00;;
42124;SDS011;27787;44.594;11.046;2023-04-03T03:29:30;9.80;;;4.17;;
42124;SDS011;27787;44.594;11.046;2023-04-03T03:32:14;9.50;;;5.28;;
42124;SDS011;27787;44.594;11.046;2023-04-03T03:34:58;8.00;;;4.68;;
42124;SDS011;27787;44.594;11.046;2023-04-03T03:37:43;7.03;;;4.32;;
42124;SDS011;27787;44.594;11.046;2023-04-03T03:40:27;6.95;;;3.75;;
42124;SDS011;27787;44.594;11.046;2023-04-03T03:43:12;6.13;;;3.33;;
42124;SDS011;27787;44.594;11.046;2023-04-03T03:45:56;4.70;;;3.35;;
42124;SDS011;27787;44.594;11.046;2023-04-03T03:48:42;4.90;;;2.80;;
42124;SDS011;27787;44.594;11.046;2023-04-03T03:51:26;5.47;;;3.40;;
42124;SDS011;27787;44.594;11.046;2023-04-03T03:54:11;5.63;;;2.65;;
42124;SDS011;27787;44.594;11.046;2023-04-03T03:56:55;5.88;;;3.05;;
42124;SDS011;27787;44.594;11.046;2023-04-03T03:59:42;4.90;;;2.90;;
42124;SDS011;27787;44.594;11.046;2023-04-03T04:05:12;5.25;;;2.95;;
42124;SDS011;27787;44.594;11.046;2023-04-03T04:07:57;7.97;;;3.83;;
42124;SDS011;27787;44.594;11.046;2023-04-03T04:10:42;8.95;;;4.72;;
42124;SDS011;27787;44.594;11.046;2023-04-03T04:13:29;6.20;;;3.85;;
42124;SDS011;27787;44.594;11.046;2023-04-03T04:16:13;8.02;;;4.80;;
42124;SDS011;27787;44.594;11.046;2023-04-03T04:18:58;7.15;;;4.47;;
42124;SDS011;27787;44.594;11.046;2023-04-03T04:21:43;8.05;;;5.18;;
42124;SDS011;27787;44.594;11.046;2023-04-03T04:24:27;10.25;;;5.15;;
42124;SDS011;27787;44.594;11.046;2023-04-03T04:27:13;9.05;;;5.15;;
42124;SDS011;27787;44.594;11.046;2023-04-03T04:29:58;11.50;;;5.95;;
42124;SDS011;27787;44.594;11.046;2023-04-03T04:32:42;11.82;;;5.72;;
42124;SDS011;27787;44.594;11.046;2023-04-03T04:35:27;6.70;;;4.00;;
42124;SDS011;27787;44.594;11.046;2023-04-03T04:38:11;7.70;;;5.00;;
42124;SDS011;27787;44.594;11.046;2023-04-03T04:40:56;14.38;;;4.53;;
42124;SDS011;27787;44.594;11.046;2023-04-03T04:43:40;8.35;;;4.22;;
42124;SDS011;27787;44.594;11.046;2023-04-03T04:46:26;9.55;;;4.50;;
42124;SDS011;27787;44.594;11.046;2023-04-03T04:49:14;10.32;;;4.53;;
42124;SDS011;27787;44.594;11.046;2023-04-03T04:51:59;10.90;;;4.72;;
42124;SDS011;27787;44.594;11.046;2023-04-03T04:54:47;7.47;;;4.78;;
42124;SDS011;27787;44.594;11.046;2023-04-03T04:57:32;7.22;;;4.63;;
42124;SDS011;27787;44.594;11.046;2023-04-03T05:00:17;13.25;;;4.90;;
42124;SDS011;27787;44.594;11.046;2023-04-03T05:03:02;7.80;;;4.32;;
42124;SDS011;27787;44.594;11.046;2023-04-03T05:05:48;6.95;;;4.07;;
42124;SDS011;27787;44.594;11.046;2023-04-03T05:08:32;11.40;;;5.22;;
42124;SDS011;27787;44.594;11.046;2023-04-03T05:11:17;12.70;;;4.53;;
42124;SDS011;27787;44.594;11.046;2023-04-03T05:14:04;9.13;;;4.18;;
42124;SDS011;27787;44.594;11.046;2023-04-03T05:16:52;13.32;;;6.00;;
42124;SDS011;27787;44.594;11.046;2023-04-03T05:19:42;6.85;;;4.10;;
42124;SDS011;27787;44.594;11.046;2023-04-03T05:22:28;9.90;;;5.03;;
42124;SDS011;27787;44.594;11.046;2023-04-03T05:25:17;10.60;;;4.72;;
42124;SDS011;27787;44.594;11.046;2023-04-03T05:28:02;9.80;;;4.70;;
42124;SDS011;27787;44.594;11.046;2023-04-03T05:30:52;10.13;;;4.18;;
42124;SDS011;27787;44.594;11.046;2023-04-03T05:33:47;13.35;;;3.50;;
42124;SDS011;27787;44.594;11.046;2023-04-03T05:36:44;7.25;;;3.97;;
42124;SDS011;27787;44.594;11.046;2023-04-03T05:39:30;7.18;;;3.50;;
42124;SDS011;27787;44.594;11.046;2023-04-03T05:42:17;6.68;;;3.38;;
42124;SDS011;27787;44.594;11.046;2023-04-03T05:45:02;8.07;;;3.87;;
42124;SDS011;27787;44.594;11.046;2023-04-03T05:47:46;9.43;;;4.40;;
42124;SDS011;27787;44.594;11.046;2023-04-03T05:50:31;7.55;;;3.17;;
42124;SDS011;27787;44.594;11.046;2023-04-03T05:53:18;10.18;;;3.55;;
42124;SDS011;27787;44.594;11.046;2023-04-03T05:56:11;5.93;;;3.35;;
42124;SDS011;27787;44.594;11.046;2023-04-03T05:58:57;10.05;;;3.70;;
42124;SDS011;27787;44.594;11.046;2023-04-03T06:01:42;5.87;;;3.33;;
42124;SDS011;27787;44.594;11.046;2023-04-03T06:04:27;10.13;;;3.65;;
42124;SDS011;27787;44.594;11.046;2023-04-03T06:07:12;8.73;;;3.38;;
42124;SDS011;27787;44.594;11.046;2023-04-03T06:09:59;10.65;;;3.78;;
42124;SDS011;27787;44.594;11.046;2023-04-03T06:12:44;12.20;;;4.53;;
42124;SDS011;27787;44.594;11.046;2023-04-03T06:15:28;8.63;;;4.10;;
42124;SDS011;27787;44.594;11.046;2023-04-03T06:18:12;6.93;;;4.47;;
42124;SDS011;27787;44.594;11.046;2023-04-03T06:20:57;10.03;;;5.93;;
42124;SDS011;27787;44.594;11.046;2023-04-03T06:23:44;8.15;;;4.82;;
42124;SDS011;27787;44.594;11.046;2023-04-03T06:26:30;8.05;;;4.82;;
42124;SDS011;27787;44.594;11.046;2023-04-03T06:29:14;10.23;;;6.00;;
42124;SDS011;27787;44.594;11.046;2023-04-03T06:31:58;9.68;;;5.25;;
42124;SDS011;27787;44.594;11.046;2023-04-03T06:34:42;11.07;;;5.40;;
42124;SDS011;27787;44.594;11.046;2023-04-03T06:37:27;15.45;;;7.13;;
42124;SDS011;27787;44.594;11.046;2023-04-03T06:40:15;11.40;;;6.40;;
42124;SDS011;27787;44.594;11.046;2023-04-03T06:43:04;12.95;;;6.35;;
42124;SDS011;27787;44.594;11.046;2023-04-03T06:45:48;10.32;;;6.60;;
42124;SDS011;27787;44.594;11.046;2023-04-03T06:48:32;11.13;;;6.70;;
42124;SDS011;27787;44.594;11.046;2023-04-03T06:51:18;12.82;;;7.55;;
42124;SDS011;27787;44.594;11.046;2023-04-03T06:54:06;13.32;;;6.88;;
42124;SDS011;27787;44.594;11.046;2023-04-03T06:56:51;12.20;;;7.03;;
42124;SDS011;27787;44.594;11.046;2023-04-03T06:59:36;13.60;;;6.80;;
42124;SDS011;27787;44.594;11.046;2023-04-03T07:02:30;13.40;;;7.20;;
42124;SDS011;27787;44.594;11.046;2023-04-03T07:05:26;11.77;;;7.13;;
42124;SDS011;27787;44.594;11.046;2023-04-03T07:08:11;16.25;;;7.20;;
42124;SDS011;27787;44.594;11.046;2023-04-03T07:10:55;14.10;;;7.25;;
42124;SDS011;27787;44.594;11.046;2023-04-03T07:13:40;13.25;;;8.10;;
42124;SDS011;27787;44.594;11.046;2023-04-03T07:16:25;13.30;;;7.43;;
42124;SDS011;27787;44.594;11.046;2023-04-03T07:19:09;16.75;;;8.23;;
42124;SDS011;27787;44.594;11.046;2023-04-03T07:22:00;18.85;;;7.68;;
42124;SDS011;27787;44.594;11.046;2023-04-03T07:25:10;15.40;;;7.78;;
42124;SDS011;27787;44.594;11.046;2023-04-03T07:27:54;16.05;;;8.23;;
42124;SDS011;27787;44.594;11.046;2023-04-03T07:30:45;16.10;;;7.32;;
42124;SDS011;27787;44.594;11.046;2023-04-03T07:33:32;15.80;;;7.20;;
42124;SDS011;27787;44.594;11.046;2023-04-03T07:36:18;16.13;;;8.00;;
42124;SDS011;27787;44.594;11.046;2023-04-03T07:39:05;19.13;;;8.98;;
42124;SDS011;27787;44.594;11.046;2023-04-03T07:41:50;13.70;;;8.18;;
42124;SDS011;27787;44.594;11.046;2023-04-03T07:44:35;13.88;;;8.32;;
42124;SDS011;27787;44.594;11.046;2023-04-03T07:47:20;13.35;;;7.95;;
42124;SDS011;27787;44.594;11.046;2023-04-03T07:50:04;19.85;;;8.10;;
42124;SDS011;27787;44.594;11.046;2023-04-03T07:52:49;14.93;;;8.70;;
42124;SDS011;27787;44.594;11.046;2023-04-03T07:55:34;19.85;;;9.05;;
42124;SDS011;27787;44.594;11.046;2023-04-03T07:58:26;20.83;;;8.95;;
42124;SDS011;27787;44.594;11.046;2023-04-03T08:01:11;18.15;;;8.80;;
42124;SDS011;27787;44.594;11.046;2023-04-03T08:03:55;13.77;;;8.35;;
42124;SDS011;27787;44.594;11.046;2023-04-03T08:06:39;14.70;;;9.00;;
42124;SDS011;27787;44.594;11.046;2023-04-03T08:09:23;16.23;;;9.93;;
42124;SDS011;27787;44.594;11.046;2023-04-03T08:12:07;18.00;;;9.75;;
42124;SDS011;27787;44.594;11.046;2023-04-03T08:14:52;21.85;;;9.10;;
42124;SDS011;27787;44.594;11.046;2023-04-03T08:17:36;19.08;;;9.45;;
42124;SDS011;27787;44.594;11.046;2023-04-03T08:20:20;18.73;;;9.30;;
42124;SDS011;27787;44.594;11.046;2023-04-03T08:23:04;15.45;;;9.75;;
42124;SDS011;27787;44.594;11.046;2023-04-03T08:25:50;14.00;;;9.20;;
42124;SDS011;27787;44.594;11.046;2023-04-03T08:28:34;20.88;;;9.60;;
42124;SDS011;27787;44.594;11.046;2023-04-03T08:31:19;16.35;;;9.60;;
42124;SDS011;27787;44.594;11.046;2023-04-03T08:34:03;17.50;;;9.15;;
42124;SDS011;27787;44.594;11.046;2023-04-03T08:36:47;20.10;;;10.50;;
42124;SDS011;27787;44.594;11.046;2023-04-03T08:39:31;19.42;;;9.60;;
42124;SDS011;27787;44.594;11.046;2023-04-03T08:42:19;15.27;;;9.15;;
42124;SDS011;27787;44.594;11.046;2023-04-03T08:48:28;16.75;;;9.98;;
42124;SDS011;27787;44.594;11.046;2023-04-03T08:51:17;15.82;;;9.10;;
42124;SDS011;27787;44.594;11.046;2023-04-03T08:54:05;18.73;;;8.25;;
42124;SDS011;27787;44.594;11.046;2023-04-03T08:56:56;14.95;;;8.70;;
42124;SDS011;27787;44.594;11.046;2023-04-03T08:59:43;12.77;;;8.57;;
42124;SDS011;27787;44.594;11.046;2023-04-03T09:02:33;14.85;;;8.10;;
42124;SDS011;27787;44.594;11.046;2023-04-03T09:20:22;9.88;;;5.75;;
42124;SDS011;27787;44.594;11.046;2023-04-03T09:23:31;10.57;;;5.78;;
42124;SDS011;27787;44.594;11.046;2023-04-03T09:26:23;7.95;;;5.15;;
42124;SDS011;27787;44.594;11.046;2023-04-03T09:29:14;6.28;;;4.07;;
42124;SDS011;27787;44.594;11.046;2023-04-03T09:32:07;9.35;;;5.03;;
42124;SDS011;27787;44.594;11.046;2023-04-03T09:35:04;7.68;;;4.70;;
42124;SDS011;27787;44.594;11.046;2023-04-03T09:37:58;8.43;;;4.38;;
42124;SDS011;27787;44.594;11.046;2023-04-03T09:40:45;10.02;;;5.43;;
42124;SDS011;27787;44.594;11.046;2023-04-03T09:43:35;9.70;;;5.20;;
42124;SDS011;27787;44.594;11.046;2023-04-03T09:49:14;8.30;;;4.70;;
42124;SDS011;27787;44.594;11.046;2023-04-03T09:52:01;12.90;;;4.65;;
42124;SDS011;27787;44.594;11.046;2023-04-03T09:55:19;7.50;;;4.22;;
42124;SDS011;27787;44.594;11.046;2023-04-03T09:58:30;8.48;;;4.95;;
42124;SDS011;27787;44.594;11.046;2023-04-03T10:01:27;6.00;;;4.00;;
42124;SDS011;27787;44.594;11.046;2023-04-03T10:04:16;5.35;;;3.53;;
42124;SDS011;27787;44.594;11.046;2023-04-03T10:07:02;9.13;;;3.97;;
42124;SDS011;27787;44.594;11.046;2023-04-03T10:09:53;9.05;;;4.57;;
42124;SDS011;27787;44.594;11.046;2023-04-03T10:12:39;12.43;;;4.85;;
42124;SDS011;27787;44.594;11.046;2023-04-03T10:15:24;8.40;;;5.25;;
42124;SDS011;27787;44.594;11.046;2023-04-03T10:18:23;9.05;;;4.18;;
42124;SDS011;27787;44.594;11.046;2023-04-03T10:21:31;5.90;;;3.60;;
42124;SDS011;27787;44.594;11.046;2023-04-03T10:34:01;6.60;;;3.42;;
42124;SDS011;27787;44.594;11.046;2023-04-03T10:37:00;7.45;;;3.97;;
42124;SDS011;27787;44.594;11.046;2023-04-03T10:49:05;10.68;;;4.65;;
42124;SDS011;27787;44.594;11.046;2023-04-03T10:57:49;4.45;;;2.20;;
42124;SDS011;27787;44.594;11.046;2023-04-03T11:06:42;9.57;;;3.40;;
42124;SDS011;27787;44.594;11.046;2023-04-03T11:09:35;5.18;;;3.35;;
42124;SDS011;27787;44.594;11.046;2023-04-03T11:12:28;8.10;;;3.22;;
42124;SDS011;27787;44.594;11.046;2023-04-03T11:15:22;6.50;;;2.78;;
42124;SDS011;27787;44.594;11.046;2023-04-03T11:18:32;10.57;;;3.22;;
42124;SDS011;27787;44.594;11.046;2023-04-03T11:21:20;4.22;;;2.90;;
42124;SDS011;27787;44.594;11.046;2023-04-03T11:24:27;6.97;;;2.15;;
42124;SDS011;27787;44.594;11.046;2023-04-03T11:27:19;5.60;;;2.40;;
42124;SDS011;27787;44.594;11.046;2023-04-03T11:30:14;8.57;;;2.55;;
42124;SDS011;27787;44.594;11.046;2023-04-03T11:54:34;17.55;;;2.80;;
42124;SDS011;27787;44.594;11.046;2023-04-03T11:58:02;6.68;;;2.60;;
42124;SDS011;27787;44.594;11.046;2023-04-03T12:15:19;6.72;;;2.15;;
42124;SDS011;27787;44.594;11.046;2023-04-03T12:18:31;4.40;;;1.90;;
42124;SDS011;27787;44.594;11.046;2023-04-03T12:21:16;5.72;;;2.03;;
42124;SDS011;27787;44.594;11.046;2023-04-03T12:30:05;2.55;;;1.35;;
42124;SDS011;27787;44.594;11.046;2023-04-03T12:36:15;2.25;;;1.35;;
42124;SDS011;27787;44.594;11.046;2023-04-03T12:42:12;3.63;;;1.33;;
42124;SDS011;27787;44.594;11.046;2023-04-03T12:45:21;1.88;;;1.10;;
42124;SDS011;27787;44.594;11.046;2023-04-03T12:48:09;6.55;;;1.55;;
42124;SDS011;27787;44.594;11.046;2023-04-03T12:50:58;6.00;;;1.50;;
42124;SDS011;27787;44.594;11.046;2023-04-03T12:53:44;3.13;;;1.63;;
42124;SDS011;27787;44.594;11.046;2023-04-03T12:56:31;5.90;;;1.35;;
42124;SDS011;27787;44.594;11.046;2023-04-03T12:59:18;3.90;;;1.08;;
42124;SDS011;27787;44.594;11.046;2023-04-03T13:02:12;3.20;;;1.08;;
42124;SDS011;27787;44.594;11.046;2023-04-03T13:05:05;4.15;;;1.35;;
42124;SDS011;27787;44.594;11.046;2023-04-03T13:08:03;2.45;;;1.27;;
42124;SDS011;27787;44.594;11.046;2023-04-03T13:10:51;3.05;;;1.30;;
42124;SDS011;27787;44.594;11.046;2023-04-03T13:13:40;4.40;;;1.58;;
42124;SDS011;27787;44.594;11.046;2023-04-03T13:16:38;3.72;;;1.23;;
42124;SDS011;27787;44.594;11.046;2023-04-03T13:19:25;7.88;;;1.40;;
42124;SDS011;27787;44.594;11.046;2023-04-03T13:22:21;2.30;;;1.00;;
42124;SDS011;27787;44.594;11.046;2023-04-03T13:25:10;2.17;;;1.10;;
42124;SDS011;27787;44.594;11.046;2023-04-03T13:27:59;13.32;;;1.85;;
42124;SDS011;27787;44.594;11.046;2023-04-03T13:33:54;3.53;;;1.02;;
42124;SDS011;27787;44.594;11.046;2023-04-03T13:39:37;4.25;;;0.93;;
42124;SDS011;27787;44.594;11.046;2023-04-03T13:42:24;5.45;;;1.98;;
42124;SDS011;27787;44.594;11.046;2023-04-03T13:45:18;7.93;;;1.70;;
42124;SDS011;27787;44.594;11.046;2023-04-03T13:50:54;5.53;;;1.42;;
42124;SDS011;27787;44.594;11.046;2023-04-03T13:53:52;1.25;;;0.88;;
42124;SDS011;27787;44.594;11.046;2023-04-03T13:56:41;4.95;;;1.52;;
42124;SDS011;27787;44.594;11.046;2023-04-03T13:59:35;4.03;;;1.00;;
42124;SDS011;27787;44.594;11.046;2023-04-03T14:02:21;14.65;;;1.65;;
42124;SDS011;27787;44.594;11.046;2023-04-03T14:05:17;7.18;;;1.30;;
42124;SDS011;27787;44.594;11.046;2023-04-03T14:08:05;2.13;;;0.90;;
42124;SDS011;27787;44.594;11.046;2023-04-03T14:10:51;2.17;;;1.10;;
42124;SDS011;27787;44.594;11.046;2023-04-03T14:13:36;6.65;;;1.38;;
42124;SDS011;27787;44.594;11.046;2023-04-03T14:16:22;4.38;;;1.73;;
42124;SDS011;27787;44.594;11.046;2023-04-03T14:19:10;5.47;;;1.35;;
42124;SDS011;27787;44.594;11.046;2023-04-03T14:22:15;4.93;;;1.40;;
42124;SDS011;27787;44.594;11.046;2023-04-03T14:25:07;3.83;;;1.50;;
42124;SDS011;27787;44.594;11.046;2023-04-03T14:27:52;1.77;;;1.17;;
42124;SDS011;27787;44.594;11.046;2023-04-03T14:30:37;1.58;;;0.90;;
42124;SDS011;27787;44.594;11.046;2023-04-03T14:33:22;1.83;;;1.20;;
42124;SDS011;27787;44.594;11.046;2023-04-03T14:36:14;1.15;;;0.80;;
42124;SDS011;27787;44.594;11.046;2023-04-03T14:38:59;2.47;;;1.10;;
42124;SDS011;27787;44.594;11.046;2023-04-03T14:41:44;4.75;;;1.15;;
42124;SDS011;27787;44.594;11.046;2023-04-03T14:44:29;5.65;;;1.33;;
42124;SDS011;27787;44.594;11.046;2023-04-03T14:47:13;7.03;;;1.30;;
42124;SDS011;27787;44.594;11.046;2023-04-03T14:50:02;1.73;;;1.00;;
42124;SDS011;27787;44.594;11.046;2023-04-03T14:52:49;5.80;;;1.20;;
42124;SDS011;27787;44.594;11.046;2023-04-03T14:55:35;3.45;;;1.10;;
42124;SDS011;27787;44.594;11.046;2023-04-03T14:58:19;1.85;;;1.33;;
42124;SDS011;27787;44.594;11.046;2023-04-03T15:01:04;1.83;;;1.35;;
42124;SDS011;27787;44.594;11.046;2023-04-03T15:03:49;3.10;;;1.15;;
42124;SDS011;27787;44.594;11.046;2023-04-03T15:06:33;2.45;;;1.20;;
42124;SDS011;27787;44.594;11.046;2023-04-03T15:09:22;2.05;;;1.02;;
42124;SDS011;27787;44.594;11.046;2023-04-03T15:12:08;1.70;;;0.90;;
42124;SDS011;27787;44.594;11.046;2023-04-03T15:14:53;1.70;;;0.98;;
42124;SDS011;27787;44.594;11.046;2023-04-03T15:17:37;2.92;;;1.17;;
42124;SDS011;27787;44.594;11.046;2023-04-03T15:20:23;4.20;;;0.95;;
42124;SDS011;27787;44.594;11.046;2023-04-03T15:23:10;2.97;;;1.10;;
42124;SDS011;27787;44.594;11.046;2023-04-03T15:25:56;2.55;;;0.98;;
42124;SDS011;27787;44.594;11.046;2023-04-03T15:28:42;3.97;;;1.38;;
42124;SDS011;27787;44.594;11.046;2023-04-03T15:31:28;3.63;;;1.05;;
42124;SDS011;27787;44.594;11.046;2023-04-03T15:34:12;7.85;;;1.23;;
42124;SDS011;27787;44.594;11.046;2023-04-03T15:36:56;4.30;;;1.00;;
42124;SDS011;27787;44.594;11.046;2023-04-03T15:39:41;2.65;;;1.02;;
42124;SDS011;27787;44.594;11.046;2023-04-03T15:42:25;2.88;;;1.10;;
42124;SDS011;27787;44.594;11.046;2023-04-03T15:45:09;1.98;;;1.25;;
42124;SDS011;27787;44.594;11.046;2023-04-03T15:47:54;1.15;;;0.88;;
42124;SDS011;27787;44.594;11.046;2023-04-03T15:50:38;1.63;;;1.00;;
42124;SDS011;27787;44.594;11.046;2023-04-03T15:56:08;1.85;;;0.98;;
42124;SDS011;27787;44.594;11.046;2023-04-03T15:58:53;2.55;;;1.35;;
42124;SDS011;27787;44.594;11.046;2023-04-03T16:01:37;4.38;;;1.10;;
42124;SDS011;27787;44.594;11.046;2023-04-03T16:04:23;2.42;;;1.15;;
42124;SDS011;27787;44.594;11.046;2023-04-03T16:07:07;3.45;;;1.48;;
42124;SDS011;27787;44.594;11.046;2023-04-03T16:09:52;4.53;;;0.93;;
42124;SDS011;27787;44.594;11.046;2023-04-03T16:12:36;1.75;;;1.10;;
42124;SDS011;27787;44.594;11.046;2023-04-03T16:15:21;2.90;;;1.00;;
42124;SDS011;27787;44.594;11.046;2023-04-03T16:18:05;6.57;;;1.13;;
42124;SDS011;27787;44.594;11.046;2023-04-03T16:20:51;4.78;;;1.20;;
42124;SDS011;27787;44.594;11.046;2023-04-03T16:23:50;4.88;;;1.10;;
42124;SDS011;27787;44.594;11.046;2023-04-03T16:26:34;8.38;;;1.10;;
42124;SDS011;27787;44.594;11.046;2023-04-03T16:29:19;4.43;;;1.15;;
42124;SDS011;27787;44.594;11.046;2023-04-03T16:32:04;3.28;;;0.98;;
42124;SDS011;27787;44.594;11.046;2023-04-03T16:34:49;4.45;;;1.00;;
42124;SDS011;27787;44.594;11.046;2023-04-03T16:37:33;2.13;;;1.00;;
42124;SDS011;27787;44.594;11.046;2023-04-03T16:40:18;1.95;;;1.02;;
42124;SDS011;27787;44.594;11.046;2023-04-03T16:43:02;2.47;;;1.10;;
42124;SDS011;27787;44.594;11.046;2023-04-03T16:45:46;2.95;;;1.20;;
42124;SDS011;27787;44.594;11.046;2023-04-03T16:48:30;9.18;;;1.10;;
42124;SDS011;27787;44.594;11.046;2023-04-03T16:51:15;6.63;;;1.20;;
42124;SDS011;27787;44.594;11.046;2023-04-03T16:53:59;2.67;;;0.93;;
42124;SDS011;27787;44.594;11.046;2023-04-03T16:56:44;2.80;;;1.00;;
42124;SDS011;27787;44.594;11.046;2023-04-03T16:59:28;2.08;;;0.90;;
42124;SDS011;27787;44.594;11.046;2023-04-03T17:02:12;2.58;;;0.77;;
42124;SDS011;27787;44.594;11.046;2023-04-03T17:04:57;4.20;;;0.80;;
42124;SDS011;27787;44.594;11.046;2023-04-03T17:07:41;1.33;;;0.90;;
42124;SDS011;27787;44.594;11.046;2023-04-03T17:10:25;2.30;;;1.05;;
42124;SDS011;27787;44.594;11.046;2023-04-03T17:13:10;1.60;;;0.93;;
42124;SDS011;27787;44.594;11.046;2023-04-03T17:15:54;3.75;;;1.05;;
42124;SDS011;27787;44.594;11.046;2023-04-03T17:18:39;1.77;;;1.02;;
42124;SDS011;27787;44.594;11.046;2023-04-03T17:24:09;2.88;;;1.08;;
42124;SDS011;27787;44.594;11.046;2023-04-03T17:26:56;3.97;;;1.20;;
42124;SDS011;27787;44.594;11.046;2023-04-03T17:29:40;3.90;;;1.70;;
42124;SDS011;27787;44.594;11.046;2023-04-03T17:32:24;3.95;;;1.40;;
42124;SDS011;27787;44.594;11.046;2023-04-03T17:35:09;3.28;;;1.20;;
42124;SDS011;27787;44.594;11.046;2023-04-03T17:37:53;7.15;;;1.42;;
42124;SDS011;27787;44.594;11.046;2023-04-03T17:40:38;2.53;;;1.10;;
42124;SDS011;27787;44.594;11.046;2023-04-03T17:43:23;2.10;;;0.97;;
42124;SDS011;27787;44.594;11.046;2023-04-03T17:46:08;4.68;;;1.20;;
42124;SDS011;27787;44.594;11.046;2023-04-03T17:48:55;7.97;;;1.50;;
42124;SDS011;27787;44.594;11.046;2023-04-03T17:51:42;2.25;;;1.20;;
42124;SDS011;27787;44.594;11.046;2023-04-03T17:54:33;2.65;;;1.20;;
42124;SDS011;27787;44.594;11.046;2023-04-03T17:57:20;3.97;;;1.50;;
42124;SDS011;27787;44.594;11.046;2023-04-03T18:00:05;2.72;;;1.33;;
42124;SDS011;27787;44.594;11.046;2023-04-03T18:02:56;5.65;;;1.48;;
42124;SDS011;27787;44.594;11.046;2023-04-03T18:05:40;2.67;;;1.30;;
42124;SDS011;27787;44.594;11.046;2023-04-03T18:08:24;3.60;;;1.85;;
42124;SDS011;27787;44.594;11.046;2023-04-03T18:11:08;2.70;;;1.52;;
42124;SDS011;27787;44.594;11.046;2023-04-03T18:13:54;2.50;;;1.38;;
42124;SDS011;27787;44.594;11.046;2023-04-03T18:16:40;4.90;;;1.23;;
42124;SDS011;27787;44.594;11.046;2023-04-03T18:19:25;4.25;;;1.40;;
42124;SDS011;27787;44.594;11.046;2023-04-03T18:22:13;4.85;;;1.70;;
42124;SDS011;27787;44.594;11.046;2023-04-03T18:25:02;5.53;;;1.70;;
42124;SDS011;27787;44.594;11.046;2023-04-03T18:27:47;4.80;;;1.45;;
42124;SDS011;27787;44.594;11.046;2023-04-03T18:30:39;4.78;;;1.63;;